الصفحة الرئيسية
METAR-TAF:

METAR-TAF

مطار :

سانتياغو, تشيلي

دائرة عرض: 33-23S, خط طول: 070-47W, ارتفاع: 475 متر

مراقبة الطقس الحالي

تاريخ ووقت الإصدار 1ساعة و 2 دقيقة قبل الساعة 03:00UTC
ريح 10 عقدة من الجنوب
درجة الحرارة 14°درجة مئوية
الرطوبة 58%
ضغط 1018 hPa
الرؤية 10 كم أو أكثر
الغيوم لا تقل 1500 م ولا وجود لمزنة ركامية السحاب الأسود

METAR: SCEL 240300Z 19010KT CAVOK 14/06 Q1018 NOSIG

زمن: 01:02 (04:02 UTC)

توقعات

تاريخ ووقت الإصدار 6ساعات و 0 دقيقة قبل الساعة 22:02UTC
التوقعات صالحة من24 الساعة 00 UTC إلى 24 الساعة 24 UTC
ريح 10 عقدة من الجنوب
الرؤية 10 كم أو أكثر
الغيوم لا تقل 1500 م ولا وجود لمزنة ركامية السحاب الأسود
أصبح
من 24 الساعة 01 UTC إلى 24 الساعة 03 UTC
ريح 4 عقدة من الجنوب
مؤقت
من 24 الساعة 05 UTC إلى 24 الساعة 14 UTC
ريح 2 عقدةمن اتجاهات متغيرة
الرؤية: 7000 متر
غيوم متفرقة على ارتفاع 1500 قدم
غيوم مفككة على ارتفاع 2500 قدم
أصبح
من 24 الساعة 15 UTC إلى 24 الساعة 17 UTC
ريح 8 عقدة من الجنوب

TAF: SCEL 232202Z 2400/2424 19010KT CAVOK TX19/2419Z TN07/2411Z BECMG 2401/2403 17004KT TEMPO 2405/2414 VRB02KT 7000 SCT015 BKN025 BECMG 2415/2417 19008KT

أرصاد الطقس والتوقعات من أكثر من 4000 مطار (تقارير الطقس للمطار METAR والتنبؤ بالطقس بالمطارTAF).

المحطات المتاحة هي النقط الصفراء والحمراء على الخريطة.

حرك المؤشر فوق النقطة لمعرفة اسم المحطة.

ثم انقر لمعرفة أرصاد وتوقعات الطقس.

لتغيير الخارطة: اضغط على الأزرار الخضراء مع رمز الصليب الأسود للتكبير. على الزر الأخضر مع شرطة للتصغير، أو على الأسهم الخضراء للخرائط المجاورة.


METAR-TAF: